Terminal Aerodrome Forecast
Issued by NWS

Current Version | Previous Version | Graphics & Text | Print | Product List | Glossary Off
Versions: 1 2 3 4 5 6 7 8 9 10 11 12 13 14 15

000
FTUS42 KILM 011700
TAFCRE
TAF
KCRE 011722Z 0118/0218 19012KT P6SM FEW030
     FM020500 24005KT P6SM FEW015 SCT050
     FM021600 20009KT P6SM SCT020 SCT080 SCT140=

USA.gov is the U.S. government's official web portal to all federal, state and local government web resources and services.